Time,TemperatureF,DewpointF,PressureIn,WindDirection,WindDirectionDegrees,WindSpeedMPH,WindSpeedGustMPH,Humidity,HourlyPrecipIn,Conditions,Clouds,dailyrainin,SoftwareType,DateUTC
2013-03-16 00:01:00,55.2,44.4,29.99,NE,45,0.0,-999.0,67,0.00,,,0.00,Wunderground v.1.15,2013-03-16 07:01:00,
2013-03-16 00:06:00,55.2,44.4,29.99,NE,45,0.0,-999.0,67,0.00,,,0.00,Wunderground v.1.15,2013-03-16 07:06:00,
2013-03-16 00:11:00,55.2,44.4,29.99,NE,45,0.0,-999.0,67,0.00,,,0.00,Wunderground v.1.15,2013-03-16 07:11:00,
2013-03-16 00:16:00,55.2,44.4,29.99,NE,45,0.0,-999.0,67,0.00,,,0.00,Wunderground v.1.15,2013-03-16 07:16:00,
2013-03-16 00:21:00,55.2,44.4,29.99,NE,45,0.0,-999.0,67,0.00,,,0.00,Wunderground v.1.15,2013-03-16 07:21:00,
2013-03-16 00:26:00,55.2,44.4,29.99,NE,45,0.0,-999.0,67,0.00,,,0.00,Wunderground v.1.15,2013-03-16 07:26:00,
2013-03-16 00:31:00,55.2,44.4,29.99,NE,45,0.0,-999.0,67,0.00,,,0.00,Wunderground v.1.15,2013-03-16 07:31:00,
2013-03-16 00:36:00,55.2,44.4,29.99,NE,45,0.0,-999.0,67,0.00,,,0.00,Wunderground v.1.15,2013-03-16 07:36:00,
2013-03-16 00:41:00,55.2,44.4,29.99,NE,45,0.0,-999.0,67,0.00,,,0.00,Wunderground v.1.15,2013-03-16 07:41:00,
2013-03-16 00:46:00,54.9,44.1,29.98,NE,45,1.0,-999.0,67,0.00,,,0.00,Wunderground v.1.15,2013-03-16 07:46:00,
2013-03-16 00:51:00,54.9,44.1,29.98,NE,45,1.0,-999.0,67,0.00,,,0.00,Wunderground v.1.15,2013-03-16 07:51:00,
2013-03-16 00:56:00,54.9,44.1,29.98,NE,45,1.0,-999.0,67,0.00,,,0.00,Wunderground v.1.15,2013-03-16 07:56:00,
2013-03-16 01:01:00,54.9,44.1,29.98,NE,45,1.0,-999.0,67,0.00,,,0.00,Wunderground v.1.15,2013-03-16 08:01:00,
2013-03-16 01:06:00,54.9,44.1,29.98,NE,45,1.0,-999.0,67,0.00,,,0.00,Wunderground v.1.15,2013-03-16 08:06:00,
2013-03-16 01:11:00,54.9,44.1,29.98,NE,45,1.0,-999.0,67,0.00,,,0.00,Wunderground v.1.15,2013-03-16 08:11:00,
2013-03-16 01:16:00,53.9,44.0,29.97,NE,45,1.0,-999.0,69,0.00,,,0.00,Wunderground v.1.15,2013-03-16 08:16:00,
2013-03-16 01:21:00,53.9,44.0,29.97,NE,45,1.0,-999.0,69,0.00,,,0.00,Wunderground v.1.15,2013-03-16 08:21:00,
2013-03-16 01:26:00,53.9,44.0,29.97,NE,45,1.0,-999.0,69,0.00,,,0.00,Wunderground v.1.15,2013-03-16 08:26:00,
2013-03-16 01:31:00,53.9,44.0,29.97,NE,45,1.0,-999.0,69,0.00,,,0.00,Wunderground v.1.15,2013-03-16 08:31:00,
2013-03-16 01:36:00,53.9,44.0,29.97,NE,45,1.0,-999.0,69,0.00,,,0.00,Wunderground v.1.15,2013-03-16 08:36:00,
2013-03-16 01:41:00,53.9,44.0,29.97,NE,45,1.0,-999.0,69,0.00,,,0.00,Wunderground v.1.15,2013-03-16 08:41:00,
2013-03-16 01:46:00,53.6,44.0,29.97,NE,45,2.0,-999.0,70,0.00,,,0.00,Wunderground v.1.15,2013-03-16 08:46:00,
2013-03-16 01:51:00,53.6,44.0,29.97,NE,45,2.0,-999.0,70,0.00,,,0.00,Wunderground v.1.15,2013-03-16 08:51:00,
2013-03-16 01:56:00,53.6,44.0,29.97,NE,45,2.0,-999.0,70,0.00,,,0.00,Wunderground v.1.15,2013-03-16 08:56:00,
2013-03-16 02:01:00,53.6,44.0,29.97,NE,45,2.0,-999.0,70,0.00,,,0.00,Wunderground v.1.15,2013-03-16 09:01:00,
2013-03-16 02:06:00,53.6,44.0,29.97,NE,45,2.0,-999.0,70,0.00,,,0.00,Wunderground v.1.15,2013-03-16 09:06:00,
2013-03-16 02:11:00,53.6,44.0,29.97,NE,45,2.0,-999.0,70,0.00,,,0.00,Wunderground v.1.15,2013-03-16 09:11:00,
2013-03-16 02:16:00,53.4,43.9,29.97,NE,45,0.0,-999.0,70,0.00,,,0.00,Wunderground v.1.15,2013-03-16 09:16:00,
2013-03-16 02:21:00,53.4,43.9,29.97,NE,45,0.0,-999.0,70,0.00,,,0.00,Wunderground v.1.15,2013-03-16 09:21:00,
2013-03-16 02:26:00,53.4,43.9,29.97,NE,45,0.0,-999.0,70,0.00,,,0.00,Wunderground v.1.15,2013-03-16 09:26:00,
2013-03-16 02:31:00,53.4,43.9,29.97,NE,45,0.0,-999.0,70,0.00,,,0.00,Wunderground v.1.15,2013-03-16 09:31:00,
2013-03-16 02:36:00,53.4,43.9,29.97,NE,45,0.0,-999.0,70,0.00,,,0.00,Wunderground v.1.15,2013-03-16 09:36:00,
2013-03-16 02:41:00,53.4,43.9,29.97,NE,45,0.0,-999.0,70,0.00,,,0.00,Wunderground v.1.15,2013-03-16 09:41:00,
2013-03-16 02:46:00,53.1,43.2,29.97,NE,45,1.0,-999.0,69,0.00,,,0.00,Wunderground v.1.15,2013-03-16 09:46:00,
2013-03-16 02:51:00,53.1,43.2,29.97,NE,45,1.0,-999.0,69,0.00,,,0.00,Wunderground v.1.15,2013-03-16 09:51:00,
2013-03-16 02:56:00,53.1,43.2,29.97,NE,45,1.0,-999.0,69,0.00,,,0.00,Wunderground v.1.15,2013-03-16 09:56:00,
2013-03-16 03:01:00,53.1,43.2,29.97,NE,45,1.0,-999.0,69,0.00,,,0.00,Wunderground v.1.15,2013-03-16 10:01:00,
2013-03-16 03:06:00,53.1,43.2,29.97,NE,45,1.0,-999.0,69,0.00,,,0.00,Wunderground v.1.15,2013-03-16 10:06:00,
2013-03-16 03:11:00,53.1,43.2,29.97,NE,45,1.0,-999.0,69,0.00,,,0.00,Wunderground v.1.15,2013-03-16 10:11:00,
2013-03-16 03:16:00,52.9,42.2,29.96,NE,45,1.0,-999.0,67,0.00,,,0.00,Wunderground v.1.15,2013-03-16 10:16:00,
2013-03-16 03:21:00,52.9,42.2,29.96,NE,45,1.0,-999.0,67,0.00,,,0.00,Wunderground v.1.15,2013-03-16 10:21:00,
2013-03-16 03:26:00,52.9,42.2,29.96,NE,45,1.0,-999.0,67,0.00,,,0.00,Wunderground v.1.15,2013-03-16 10:26:00,
2013-03-16 03:31:00,52.9,42.2,29.96,NE,45,1.0,-999.0,67,0.00,,,0.00,Wunderground v.1.15,2013-03-16 10:31:00,
2013-03-16 03:36:00,52.9,42.2,29.96,NE,45,1.0,-999.0,67,0.00,,,0.00,Wunderground v.1.15,2013-03-16 10:36:00,
2013-03-16 03:41:00,52.9,42.2,29.96,NE,45,1.0,-999.0,67,0.00,,,0.00,Wunderground v.1.15,2013-03-16 10:41:00,
2013-03-16 03:46:00,52.7,41.3,29.96,NE,45,0.0,-999.0,65,0.00,,,0.00,Wunderground v.1.15,2013-03-16 10:46:00,
2013-03-16 03:51:00,52.7,41.3,29.96,NE,45,0.0,-999.0,65,0.00,,,0.00,Wunderground v.1.15,2013-03-16 10:51:00,
2013-03-16 03:56:00,52.7,41.3,29.96,NE,45,0.0,-999.0,65,0.00,,,0.00,Wunderground v.1.15,2013-03-16 10:56:00,
2013-03-16 04:01:00,52.7,41.3,29.96,NE,45,0.0,-999.0,65,0.00,,,0.00,Wunderground v.1.15,2013-03-16 11:01:00,
2013-03-16 04:06:00,52.7,41.3,29.96,NE,45,0.0,-999.0,65,0.00,,,0.00,Wunderground v.1.15,2013-03-16 11:06:00,
2013-03-16 04:11:00,52.7,41.3,29.96,NE,45,0.0,-999.0,65,0.00,,,0.00,Wunderground v.1.15,2013-03-16 11:11:00,
2013-03-16 04:16:00,51.4,40.4,29.96,ESE,113,0.0,-999.0,66,0.00,,,0.00,Wunderground v.1.15,2013-03-16 11:16:00,
2013-03-16 04:21:00,51.4,40.4,29.96,ESE,113,0.0,-999.0,66,0.00,,,0.00,Wunderground v.1.15,2013-03-16 11:21:00,
2013-03-16 04:26:00,51.4,40.4,29.96,ESE,113,0.0,-999.0,66,0.00,,,0.00,Wunderground v.1.15,2013-03-16 11:26:00,
2013-03-16 04:31:00,51.4,40.4,29.96,ESE,113,0.0,-999.0,66,0.00,,,0.00,Wunderground v.1.15,2013-03-16 11:31:00,
2013-03-16 04:36:00,51.4,40.4,29.96,ESE,113,0.0,-999.0,66,0.00,,,0.00,Wunderground v.1.15,2013-03-16 11:36:00,
2013-03-16 04:41:00,51.4,40.4,29.96,ESE,113,0.0,-999.0,66,0.00,,,0.00,Wunderground v.1.15,2013-03-16 11:41:00,
2013-03-16 04:46:00,51.3,39.9,29.95,ENE,68,1.0,-999.0,65,0.00,,,0.00,Wunderground v.1.15,2013-03-16 11:46:00,
2013-03-16 04:51:00,51.3,39.9,29.95,ENE,68,1.0,-999.0,65,0.00,,,0.00,Wunderground v.1.15,2013-03-16 11:51:00,
2013-03-16 04:56:00,51.3,39.9,29.95,ENE,68,1.0,-999.0,65,0.00,,,0.00,Wunderground v.1.15,2013-03-16 11:56:00,
2013-03-16 05:01:00,51.3,39.9,29.95,ENE,68,1.0,-999.0,65,0.00,,,0.00,Wunderground v.1.15,2013-03-16 12:01:00,
2013-03-16 05:06:00,51.3,39.9,29.95,ENE,68,1.0,-999.0,65,0.00,,,0.00,Wunderground v.1.15,2013-03-16 12:06:00,
2013-03-16 05:11:00,51.3,39.9,29.95,ENE,68,1.0,-999.0,65,0.00,,,0.00,Wunderground v.1.15,2013-03-16 12:11:00,
2013-03-16 05:16:00,51.1,38.9,29.95,East,90,0.0,-999.0,63,0.00,,,0.00,Wunderground v.1.15,2013-03-16 12:16:00,
2013-03-16 05:21:00,51.1,38.9,29.95,East,90,0.0,-999.0,63,0.00,,,0.00,Wunderground v.1.15,2013-03-16 12:21:00,
2013-03-16 05:26:00,51.1,38.9,29.95,East,90,0.0,-999.0,63,0.00,,,0.00,Wunderground v.1.15,2013-03-16 12:26:00,
2013-03-16 05:31:00,51.1,38.9,29.95,East,90,0.0,-999.0,63,0.00,,,0.00,Wunderground v.1.15,2013-03-16 12:31:00,
2013-03-16 05:36:00,51.1,38.9,29.95,East,90,0.0,-999.0,63,0.00,,,0.00,Wunderground v.1.15,2013-03-16 12:36:00,
2013-03-16 05:41:00,51.1,38.9,29.95,East,90,0.0,-999.0,63,0.00,,,0.00,Wunderground v.1.15,2013-03-16 12:41:00,
2013-03-16 05:46:00,51.0,38.0,29.96,ESE,113,0.0,-999.0,61,0.00,,,0.00,Wunderground v.1.15,2013-03-16 12:46:00,
2013-03-16 05:51:00,51.0,38.0,29.96,ESE,113,0.0,-999.0,61,0.00,,,0.00,Wunderground v.1.15,2013-03-16 12:51:00,
2013-03-16 05:56:00,51.0,38.0,29.96,ESE,113,0.0,-999.0,61,0.00,,,0.00,Wunderground v.1.15,2013-03-16 12:56:00,
2013-03-16 06:01:00,51.0,38.0,29.96,ESE,113,0.0,-999.0,61,0.00,,,0.00,Wunderground v.1.15,2013-03-16 13:01:00,
2013-03-16 06:06:00,51.0,38.0,29.96,ESE,113,0.0,-999.0,61,0.00,,,0.00,Wunderground v.1.15,2013-03-16 13:06:00,
2013-03-16 06:11:00,51.0,38.0,29.96,ESE,113,0.0,-999.0,61,0.00,,,0.00,Wunderground v.1.15,2013-03-16 13:11:00,
2013-03-16 06:16:00,50.8,37.0,29.95,East,90,0.0,-999.0,59,0.00,,,0.00,Wunderground v.1.15,2013-03-16 13:16:00,
2013-03-16 06:21:00,50.8,37.0,29.95,East,90,0.0,-999.0,59,0.00,,,0.00,Wunderground v.1.15,2013-03-16 13:21:00,
2013-03-16 06:26:00,50.8,37.0,29.95,East,90,0.0,-999.0,59,0.00,,,0.00,Wunderground v.1.15,2013-03-16 13:26:00,
2013-03-16 06:31:00,50.8,37.0,29.95,East,90,0.0,-999.0,59,0.00,,,0.00,Wunderground v.1.15,2013-03-16 13:31:00,
2013-03-16 06:36:00,50.8,37.0,29.95,East,90,0.0,-999.0,59,0.00,,,0.00,Wunderground v.1.15,2013-03-16 13:36:00,
2013-03-16 06:41:00,50.8,37.0,29.95,East,90,0.0,-999.0,59,0.00,,,0.00,Wunderground v.1.15,2013-03-16 13:41:00,
2013-03-16 06:46:00,48.3,36.3,29.95,East,90,1.0,-999.0,63,0.00,,,0.00,Wunderground v.1.15,2013-03-16 13:46:00,
2013-03-16 06:51:00,48.3,36.3,29.95,East,90,1.0,-999.0,63,0.00,,,0.00,Wunderground v.1.15,2013-03-16 13:51:00,
2013-03-16 06:56:00,48.3,36.3,29.95,East,90,1.0,-999.0,63,0.00,,,0.00,Wunderground v.1.15,2013-03-16 13:56:00,
2013-03-16 07:01:00,48.3,36.3,29.95,East,90,1.0,-999.0,63,0.00,,,0.00,Wunderground v.1.15,2013-03-16 14:01:00,
2013-03-16 07:06:00,48.3,36.3,29.95,East,90,1.0,-999.0,63,0.00,,,0.00,Wunderground v.1.15,2013-03-16 14:06:00,
2013-03-16 07:11:00,48.3,36.3,29.95,East,90,1.0,-999.0,63,0.00,,,0.00,Wunderground v.1.15,2013-03-16 14:11:00,
2013-03-16 07:16:00,49.1,34.9,29.96,ENE,68,2.0,-999.0,58,0.00,,,0.00,Wunderground v.1.15,2013-03-16 14:16:00,
2013-03-16 07:21:00,49.1,34.9,29.96,ENE,68,2.0,-999.0,58,0.00,,,0.00,Wunderground v.1.15,2013-03-16 14:21:00,
2013-03-16 07:26:00,49.1,34.9,29.96,ENE,68,2.0,-999.0,58,0.00,,,0.00,Wunderground v.1.15,2013-03-16 14:26:00,
2013-03-16 07:31:00,49.1,34.9,29.96,ENE,68,2.0,-999.0,58,0.00,,,0.00,Wunderground v.1.15,2013-03-16 14:31:00,
2013-03-16 07:36:00,49.1,34.9,29.96,ENE,68,2.0,-999.0,58,0.00,,,0.00,Wunderground v.1.15,2013-03-16 14:36:00,
2013-03-16 07:41:00,49.1,34.9,29.96,ENE,68,2.0,-999.0,58,0.00,,,0.00,Wunderground v.1.15,2013-03-16 14:41:00,
2013-03-16 07:46:00,51.4,33.9,29.97,East,90,2.0,-999.0,51,0.00,,,0.00,Wunderground v.1.15,2013-03-16 14:46:00,
2013-03-16 07:51:00,51.4,33.9,29.97,East,90,2.0,-999.0,51,0.00,,,0.00,Wunderground v.1.15,2013-03-16 14:51:00,
2013-03-16 07:56:00,51.4,33.9,29.97,East,90,2.0,-999.0,51,0.00,,,0.00,Wunderground v.1.15,2013-03-16 14:56:00,
2013-03-16 08:01:00,51.4,33.9,29.97,East,90,2.0,-999.0,51,0.00,,,0.00,Wunderground v.1.15,2013-03-16 15:01:00,
2013-03-16 08:06:00,51.4,33.9,29.97,East,90,2.0,-999.0,51,0.00,,,0.00,Wunderground v.1.15,2013-03-16 15:06:00,
2013-03-16 08:11:00,51.4,33.9,29.97,East,90,2.0,-999.0,51,0.00,,,0.00,Wunderground v.1.15,2013-03-16 15:11:00,
2013-03-16 08:16:00,52.5,33.9,29.98,East,90,2.0,-999.0,49,0.00,,,0.00,Wunderground v.1.15,2013-03-16 15:16:00,
2013-03-16 08:21:00,52.5,33.9,29.98,East,90,2.0,-999.0,49,0.00,,,0.00,Wunderground v.1.15,2013-03-16 15:21:00,
2013-03-16 08:26:00,52.5,33.9,29.98,East,90,2.0,-999.0,49,0.00,,,0.00,Wunderground v.1.15,2013-03-16 15:26:00,
2013-03-16 08:31:00,52.5,33.9,29.98,East,90,2.0,-999.0,49,0.00,,,0.00,Wunderground v.1.15,2013-03-16 15:31:00,
2013-03-16 08:36:00,52.5,33.9,29.98,East,90,2.0,-999.0,49,0.00,,,0.00,Wunderground v.1.15,2013-03-16 15:36:00,
2013-03-16 08:41:00,52.5,33.9,29.98,East,90,2.0,-999.0,49,0.00,,,0.00,Wunderground v.1.15,2013-03-16 15:41:00,
2013-03-16 08:46:00,56.3,33.5,30.00,East,90,1.0,-999.0,42,0.00,,,0.00,Wunderground v.1.15,2013-03-16 15:46:00,
2013-03-16 09:50:00,59.7,34.7,30.00,ENE,74,2.0,4.0,39,0.00,,,0.00,Wunderground v.1.15,2013-03-16 16:50:00,
2013-03-16 10:00:00,60.5,36.7,30.01,SE,138,2.0,2.0,41,0.00,,,0.00,Wunderground v.1.15,2013-03-16 17:00:00,
2013-03-16 10:10:00,62.6,37.9,30.00,East,84,2.0,2.0,40,0.00,,,0.00,Wunderground v.1.15,2013-03-16 17:10:00,
2013-03-16 10:20:00,62.7,35.3,30.00,East,94,2.0,3.0,36,0.00,,,0.00,Wunderground v.1.15,2013-03-16 17:20:00,
2013-03-16 10:30:00,63.2,36.5,30.00,East,98,2.0,2.0,37,0.00,,,0.00,Wunderground v.1.15,2013-03-16 17:30:00,
2013-03-16 10:40:00,63.4,37.3,30.00,NE,53,2.0,4.0,38,0.00,,,0.00,Wunderground v.1.15,2013-03-16 17:40:00,
2013-03-16 10:50:00,64.5,38.3,29.99,ESE,112,2.0,2.0,38,0.00,,,0.00,Wunderground v.1.15,2013-03-16 17:50:00,
2013-03-16 11:00:00,65.6,37.9,29.99,ENE,78,2.0,2.0,36,0.00,,,0.00,Wunderground v.1.15,2013-03-16 18:00:00,
2013-03-16 11:10:00,66.7,37.4,29.99,South,169,2.0,2.0,34,0.00,,,0.00,Wunderground v.1.15,2013-03-16 18:10:00,
2013-03-16 11:20:00,66.5,37.2,29.98,ESE,110,2.0,2.0,34,0.00,,,0.00,Wunderground v.1.15,2013-03-16 18:20:00,
2013-03-16 11:30:00,67.5,38.9,29.98,ESE,119,1.0,4.0,35,0.00,,,0.00,Wunderground v.1.15,2013-03-16 18:30:00,
2013-03-16 11:40:00,68.6,37.5,29.98,WSW,238,2.0,2.0,32,0.00,,,0.00,Wunderground v.1.15,2013-03-16 18:40:00,
2013-03-16 11:50:00,70.2,38.1,29.98,West,270,1.0,4.0,31,0.00,,,0.00,Wunderground v.1.15,2013-03-16 18:50:00,
2013-03-16 12:10:00,71.6,40.2,29.99,NNW,331,2.0,2.0,32,0.00,,,0.00,Wunderground v.1.15,2013-03-16 19:10:00,
2013-03-16 12:20:00,70.9,39.6,29.99,WSW,246,2.0,3.0,32,0.00,,,0.00,Wunderground v.1.15,2013-03-16 19:20:00,
2013-03-16 12:30:00,69.1,45.0,29.99,SSE,165,1.0,1.0,42,0.00,,,0.00,Wunderground v.1.15,2013-03-16 19:30:00,
2013-03-16 12:40:00,68.0,45.9,29.99,SSE,155,1.0,1.0,45,0.00,,,0.00,Wunderground v.1.15,2013-03-16 19:40:00,
2013-03-16 12:50:00,65.2,46.1,29.99,South,173,2.0,2.0,50,0.00,,,0.00,Wunderground v.1.15,2013-03-16 19:50:00,
2013-03-16 13:00:00,65.0,46.4,29.99,WNW,300,1.0,1.0,51,0.00,,,0.00,Wunderground v.1.15,2013-03-16 20:00:00,
2013-03-16 13:10:00,65.2,47.6,29.99,SW,219,2.0,4.0,53,0.00,,,0.00,Wunderground v.1.15,2013-03-16 20:10:00,
2013-03-16 13:20:00,66.6,46.8,29.98,NW,324,1.0,1.0,49,0.00,,,0.00,Wunderground v.1.15,2013-03-16 20:20:00,
2013-03-16 13:30:00,66.7,45.8,29.98,SSW,207,1.0,1.0,47,0.00,,,0.00,Wunderground v.1.15,2013-03-16 20:30:00,
2013-03-16 13:40:00,67.8,43.9,29.97,WSW,257,1.0,1.0,42,0.00,,,0.00,Wunderground v.1.15,2013-03-16 20:40:00,
2013-03-16 13:50:00,67.2,42.7,29.97,NNW,333,1.0,4.0,41,0.00,,,0.00,Wunderground v.1.15,2013-03-16 20:50:00,
2013-03-16 14:00:00,67.1,43.8,29.96,ENE,76,1.0,4.0,43,0.00,,,0.00,Wunderground v.1.15,2013-03-16 21:00:00,
2013-03-16 14:10:00,67.9,38.5,29.95,SW,232,1.0,4.0,34,0.00,,,0.00,Wunderground v.1.15,2013-03-16 21:10:00,
2013-03-16 14:20:00,68.6,38.3,29.95,SSW,200,1.0,4.0,33,0.00,,,0.00,Wunderground v.1.15,2013-03-16 21:20:00,
2013-03-16 14:30:00,68.9,39.4,29.95,WNW,296,1.0,1.0,34,0.00,,,0.00,Wunderground v.1.15,2013-03-16 21:30:00,
2013-03-16 14:40:00,68.0,41.4,29.95,WSW,258,1.0,1.0,38,0.00,,,0.00,Wunderground v.1.15,2013-03-16 21:40:00,
2013-03-16 14:50:00,68.7,39.9,29.95,South,169,1.0,4.0,35,0.00,,,0.00,Wunderground v.1.15,2013-03-16 21:50:00,
2013-03-16 15:00:00,69.0,40.9,29.95,NW,322,2.0,2.0,36,0.00,,,0.00,Wunderground v.1.15,2013-03-16 22:00:00,
2013-03-16 15:10:00,69.8,39.4,29.95,WSW,249,1.0,4.0,33,0.00,,,0.00,Wunderground v.1.15,2013-03-16 22:10:00,
2013-03-16 15:20:00,70.1,34.5,29.95,WNW,299,1.0,4.0,27,0.00,,,0.00,Wunderground v.1.15,2013-03-16 22:20:00,
2013-03-16 15:30:00,69.3,34.8,29.95,WSW,250,1.0,1.0,28,0.00,,,0.00,Wunderground v.1.15,2013-03-16 22:30:00,
2013-03-16 15:40:00,68.1,34.6,29.95,SW,228,2.0,2.0,29,0.00,,,0.00,Wunderground v.1.15,2013-03-16 22:40:00,
2013-03-16 15:50:00,69.4,36.6,29.95,NNW,342,0.0,4.0,30,0.00,,,0.00,Wunderground v.1.15,2013-03-16 22:50:00,
2013-03-16 16:10:00,68.7,34.3,29.95,WSW,239,1.0,1.0,28,0.00,,,0.00,Wunderground v.1.15,2013-03-16 23:10:00,
2013-03-16 16:20:00,68.6,32.3,29.95,NW,324,2.0,2.0,26,0.00,,,0.00,Wunderground v.1.15,2013-03-16 23:20:00,
2013-03-16 16:30:00,68.1,33.7,29.95,WSW,239,1.0,1.0,28,0.00,,,0.00,Wunderground v.1.15,2013-03-16 23:30:00,
2013-03-16 16:40:00,67.6,33.3,29.95,East,101,1.0,1.0,28,0.00,,,0.00,Wunderground v.1.15,2013-03-16 23:40:00,
2013-03-16 16:50:00,67.5,32.3,29.95,West,273,0.0,0.0,27,0.00,,,0.00,Wunderground v.1.15,2013-03-16 23:50:00,
2013-03-16 17:00:00,67.8,33.5,29.95,SW,235,0.0,0.0,28,0.00,,,0.00,Wunderground v.1.15,2013-03-17 00:00:00,
2013-03-16 17:10:00,67.3,33.1,29.95,West,262,0.0,8.0,28,0.00,,,0.00,Wunderground v.1.15,2013-03-17 00:10:00,
2013-03-16 17:15:00,66.7,35.1,29.95,NNW,338,0.0,-999.0,31,0.00,,,0.00,Wunderground v.1.15,2013-03-17 00:15:00,
2013-03-16 17:20:00,67.2,33.8,29.95,NW,310,0.0,8.0,29,0.00,,,0.00,Wunderground v.1.15,2013-03-17 00:20:00,
2013-03-16 17:25:00,66.7,35.1,29.95,NNW,338,0.0,-999.0,31,0.00,,,0.00,Wunderground v.1.15,2013-03-17 00:25:00,
2013-03-16 17:30:00,66.8,35.2,29.95,WNW,285,0.0,8.0,31,0.00,,,0.00,Wunderground v.1.15,2013-03-17 00:30:00,
2013-03-16 17:35:00,66.7,35.1,29.95,NNW,338,0.0,-999.0,31,0.00,,,0.00,Wunderground v.1.15,2013-03-17 00:35:00,
2013-03-16 17:40:00,65.8,36.6,29.95,WSW,248,0.0,8.0,34,0.00,,,0.00,Wunderground v.1.15,2013-03-17 00:40:00,
2013-03-16 17:45:00,64.3,38.1,29.95,WSW,248,0.0,-999.0,38,0.00,,,0.00,Wunderground v.1.15,2013-03-17 00:45:00,
2013-03-16 17:50:00,64.9,37.3,29.95,WNW,284,0.0,8.0,36,0.00,,,0.00,Wunderground v.1.15,2013-03-17 00:50:00,
2013-03-16 17:55:00,64.3,38.1,29.95,WSW,248,0.0,-999.0,38,0.00,,,0.00,Wunderground v.1.15,2013-03-17 00:55:00,
2013-03-16 18:00:00,64.3,38.1,29.95,WSW,252,0.0,8.0,38,0.00,,,0.00,Wunderground v.1.15,2013-03-17 01:00:00,
2013-03-16 18:05:00,64.3,38.1,29.95,WSW,248,0.0,-999.0,38,0.00,,,0.00,Wunderground v.1.15,2013-03-17 01:05:00,
2013-03-16 18:10:00,63.8,38.4,29.95,SW,235,0.0,8.0,39,0.00,,,0.00,Wunderground v.1.15,2013-03-17 01:10:00,
2013-03-16 18:15:00,62.4,39.0,29.95,NW,315,0.0,-999.0,42,0.00,,,0.00,Wunderground v.1.15,2013-03-17 01:15:00,
2013-03-16 18:20:00,63.2,38.5,29.95,NW,309,0.0,8.0,40,0.00,,,0.00,Wunderground v.1.15,2013-03-17 01:20:00,
2013-03-16 18:25:00,62.4,39.0,29.95,NW,315,0.0,-999.0,42,0.00,,,0.00,Wunderground v.1.15,2013-03-17 01:25:00,
2013-03-16 18:30:00,62.4,39.0,29.95,NW,315,0.0,-999.0,42,0.00,,,0.00,Wunderground v.1.15,2013-03-17 01:30:00,
2013-03-16 18:35:00,62.4,39.0,29.95,NW,315,0.0,-999.0,42,0.00,,,0.00,Wunderground v.1.15,2013-03-17 01:35:00,
2013-03-16 18:40:00,62.4,39.0,29.95,NW,315,0.0,-999.0,42,0.00,,,0.00,Wunderground v.1.15,2013-03-17 01:40:00,
2013-03-16 18:45:00,60.2,37.0,29.95,WSW,248,0.0,-999.0,42,0.00,,,0.00,Wunderground v.1.15,2013-03-17 01:45:00,
2013-03-16 18:50:00,60.2,37.0,29.95,WSW,248,0.0,-999.0,42,0.00,,,0.00,Wunderground v.1.15,2013-03-17 01:50:00,
2013-03-16 18:55:00,60.2,37.0,29.95,WSW,248,0.0,-999.0,42,0.00,,,0.00,Wunderground v.1.15,2013-03-17 01:55:00,
2013-03-16 19:00:00,60.2,37.0,29.95,WSW,248,0.0,-999.0,42,0.00,,,0.00,Wunderground v.1.15,2013-03-17 02:00:00,
2013-03-16 19:05:00,60.2,37.0,29.95,WSW,248,0.0,-999.0,42,0.00,,,0.00,Wunderground v.1.15,2013-03-17 02:05:00,
2013-03-16 19:10:00,60.2,37.0,29.95,WSW,248,0.0,-999.0,42,0.00,,,0.00,Wunderground v.1.15,2013-03-17 02:10:00,
2013-03-16 19:15:00,59.2,31.5,29.95,N/A,-737280,0.0,-999.0,35,0.00,,,0.00,Wunderground v.1.15,2013-03-17 02:15:00,
2013-03-16 19:20:00,59.2,31.5,29.95,N/A,-737280,0.0,-999.0,35,0.00,,,0.00,Wunderground v.1.15,2013-03-17 02:20:00,
2013-03-16 19:25:00,59.2,31.5,29.95,N/A,-737280,0.0,-999.0,35,0.00,,,0.00,Wunderground v.1.15,2013-03-17 02:25:00,
2013-03-16 19:30:00,59.2,31.5,29.95,N/A,-737280,0.0,-999.0,35,0.00,,,0.00,Wunderground v.1.15,2013-03-17 02:30:00,
2013-03-16 19:35:00,59.2,31.5,29.95,N/A,-737280,0.0,-999.0,35,0.00,,,0.00,Wunderground v.1.15,2013-03-17 02:35:00,
2013-03-16 19:40:00,59.2,31.5,29.95,N/A,-737280,0.0,-999.0,35,0.00,,,0.00,Wunderground v.1.15,2013-03-17 02:40:00,
2013-03-16 19:45:00,59.3,34.3,29.95,WSW,248,0.0,-999.0,39,0.00,,,0.00,Wunderground v.1.15,2013-03-17 02:45:00,
2013-03-16 19:50:00,59.3,34.3,29.95,WSW,248,0.0,-999.0,39,0.00,,,0.00,Wunderground v.1.15,2013-03-17 02:50:00,
2013-03-16 19:55:00,59.3,34.3,29.95,WSW,248,0.0,-999.0,39,0.00,,,0.00,Wunderground v.1.15,2013-03-17 02:55:00,
2013-03-16 20:00:00,59.3,34.3,29.95,WSW,248,0.0,-999.0,39,0.00,,,0.00,Wunderground v.1.15,2013-03-17 03:00:00,
2013-03-16 20:05:00,59.3,34.3,29.95,WSW,248,0.0,-999.0,39,0.00,,,0.00,Wunderground v.1.15,2013-03-17 03:05:00,
2013-03-16 20:10:00,59.3,34.3,29.95,WSW,248,0.0,-999.0,39,0.00,,,0.00,Wunderground v.1.15,2013-03-17 03:10:00,
2013-03-16 20:15:00,57.9,33.7,29.96,N/A,-737280,0.0,-999.0,40,0.00,,,0.00,Wunderground v.1.15,2013-03-17 03:15:00,
2013-03-16 20:20:00,57.9,33.7,29.96,N/A,-737280,0.0,-999.0,40,0.00,,,0.00,Wunderground v.1.15,2013-03-17 03:20:00,
2013-03-16 20:25:00,57.9,33.7,29.96,N/A,-737280,0.0,-999.0,40,0.00,,,0.00,Wunderground v.1.15,2013-03-17 03:25:00,
2013-03-16 20:30:00,57.9,33.7,29.96,N/A,-737280,0.0,-999.0,40,0.00,,,0.00,Wunderground v.1.15,2013-03-17 03:30:00,
2013-03-16 20:35:00,57.9,33.7,29.96,N/A,-737280,0.0,-999.0,40,0.00,,,0.00,Wunderground v.1.15,2013-03-17 03:35:00,
2013-03-16 20:40:00,57.9,33.7,29.96,N/A,-737280,0.0,-999.0,40,0.00,,,0.00,Wunderground v.1.15,2013-03-17 03:40:00,
2013-03-16 20:45:00,56.7,30.0,29.97,N/A,-737280,0.0,-999.0,36,0.00,,,0.00,Wunderground v.1.15,2013-03-17 03:45:00,
2013-03-16 20:50:00,56.7,30.0,29.97,N/A,-737280,0.0,-999.0,36,0.00,,,0.00,Wunderground v.1.15,2013-03-17 03:50:00,
2013-03-16 20:55:00,56.7,30.0,29.97,N/A,-737280,0.0,-999.0,36,0.00,,,0.00,Wunderground v.1.15,2013-03-17 03:55:00,
2013-03-16 21:00:00,56.7,30.0,29.97,N/A,-737280,0.0,-999.0,36,0.00,,,0.00,Wunderground v.1.15,2013-03-17 04:00:00,
2013-03-16 21:05:00,56.7,30.0,29.97,N/A,-737280,0.0,-999.0,36,0.00,,,0.00,Wunderground v.1.15,2013-03-17 04:05:00,
2013-03-16 21:10:00,56.7,30.0,29.97,N/A,-737280,0.0,-999.0,36,0.00,,,0.00,Wunderground v.1.15,2013-03-17 04:10:00,
2013-03-16 21:15:00,55.9,35.4,29.98,WSW,248,0.0,-999.0,46,0.00,,,0.00,Wunderground v.1.15,2013-03-17 04:15:00,
2013-03-16 21:20:00,55.9,35.4,29.98,WSW,248,0.0,-999.0,46,0.00,,,0.00,Wunderground v.1.15,2013-03-17 04:20:00,
2013-03-16 21:25:00,55.9,35.4,29.98,WSW,248,0.0,-999.0,46,0.00,,,0.00,Wunderground v.1.15,2013-03-17 04:25:00,
2013-03-16 21:30:00,55.9,35.4,29.98,WSW,248,0.0,-999.0,46,0.00,,,0.00,Wunderground v.1.15,2013-03-17 04:30:00,
2013-03-16 21:35:00,55.9,35.4,29.98,WSW,248,0.0,-999.0,46,0.00,,,0.00,Wunderground v.1.15,2013-03-17 04:35:00,
2013-03-16 21:40:00,55.9,35.4,29.98,WSW,248,0.0,-999.0,46,0.00,,,0.00,Wunderground v.1.15,2013-03-17 04:40:00,
2013-03-16 21:45:00,53.5,36.3,30.00,NE,45,1.0,-999.0,52,0.00,,,0.00,Wunderground v.1.15,2013-03-17 04:45:00,
2013-03-16 21:50:00,53.5,36.3,30.00,NE,45,1.0,-999.0,52,0.00,,,0.00,Wunderground v.1.15,2013-03-17 04:50:00,
2013-03-16 21:55:00,53.5,36.3,30.00,NE,45,1.0,-999.0,52,0.00,,,0.00,Wunderground v.1.15,2013-03-17 04:55:00,
2013-03-16 22:00:00,53.5,36.3,30.00,NE,45,1.0,-999.0,52,0.00,,,0.00,Wunderground v.1.15,2013-03-17 05:00:00,
2013-03-16 22:05:00,53.5,36.3,30.00,NE,45,1.0,-999.0,52,0.00,,,0.00,Wunderground v.1.15,2013-03-17 05:05:00,
2013-03-16 22:10:00,53.5,36.3,30.00,NE,45,1.0,-999.0,52,0.00,,,0.00,Wunderground v.1.15,2013-03-17 05:10:00,
2013-03-16 22:15:00,53.6,36.4,30.00,NE,45,0.0,-999.0,52,0.00,,,0.00,Wunderground v.1.15,2013-03-17 05:15:00,